createdAt,value
2019-01-29T00:01:31.343Z,0.10
2019-01-29T00:03:59.096Z,0.08
2019-01-29T00:06:26.968Z,0.05
2019-01-29T00:08:54.734Z,0.02
2019-01-29T00:11:22.499Z,0.08
2019-01-29T00:13:50.339Z,0.19
2019-01-29T00:16:18.177Z,0.22
2019-01-29T00:18:45.941Z,0.22
2019-01-29T00:21:13.705Z,0.33
2019-01-29T00:23:41.807Z,0.39
2019-01-29T00:26:09.659Z,0.41
2019-01-29T00:28:37.536Z,0.48
2019-01-29T00:31:05.363Z,0.39
2019-01-29T00:33:33.144Z,0.39
2019-01-29T00:36:01.270Z,0.52
2019-01-29T00:38:29.068Z,0.52
2019-01-29T00:40:56.812Z,0.50
2019-01-29T00:43:24.632Z,0.56
2019-01-29T00:45:52.497Z,0.66
2019-01-29T00:48:20.280Z,0.66
2019-01-29T00:50:48.243Z,0.82
2019-01-29T00:53:16.096Z,0.86
2019-01-29T00:55:43.851Z,1.03
2019-01-29T00:58:11.612Z,1.18
2019-01-29T01:00:39.833Z,1.13
2019-01-29T01:03:07.582Z,0.87
2019-01-29T01:05:35.340Z,0.81
2019-01-29T01:08:03.203Z,0.76
2019-01-29T01:10:31.221Z,0.69
2019-01-29T01:12:59.013Z,0.62
2019-01-29T01:15:26.800Z,0.53
2019-01-29T01:17:54.801Z,0.48
2019-01-29T01:20:22.649Z,0.54
2019-01-29T01:22:51.493Z,0.60
2019-01-29T01:25:19.505Z,0.64
2019-01-29T01:27:47.274Z,0.55
2019-01-29T01:30:16.055Z,0.51
2019-01-29T01:32:43.918Z,0.49
2019-01-29T01:35:11.763Z,0.47
2019-01-29T01:37:39.871Z,0.43
2019-01-29T01:40:09.706Z,0.34
2019-01-29T01:42:37.458Z,0.28
2019-01-29T01:45:06.305Z,0.27
2019-01-29T01:47:34.067Z,0.36
2019-01-29T01:50:01.856Z,0.64
2019-01-29T01:52:29.689Z,0.77
2019-01-29T01:54:57.436Z,0.70
2019-01-29T01:57:25.553Z,0.55
2019-01-29T01:59:53.306Z,0.53
2019-01-29T02:02:21.080Z,0.51
2019-01-29T02:04:48.828Z,0.43
2019-01-29T02:07:16.584Z,0.49
2019-01-29T02:09:44.455Z,0.45
2019-01-29T02:12:12.291Z,0.65
2019-01-29T02:14:40.427Z,0.67
2019-01-29T02:17:08.200Z,0.77
2019-01-29T02:19:35.944Z,0.81
2019-01-29T02:22:03.713Z,0.79
2019-01-29T02:24:31.471Z,0.77
2019-01-29T02:26:59.250Z,0.91
2019-01-29T02:29:26.996Z,1.05
2019-01-29T02:31:54.753Z,1.02
2019-01-29T02:34:22.521Z,1.04
2019-01-29T02:36:50.273Z,1.12
2019-01-29T02:39:18.134Z,1.12
2019-01-29T02:41:46.213Z,1.10
2019-01-29T02:44:13.970Z,1.12
2019-01-29T02:46:41.737Z,0.98
2019-01-29T02:49:09.492Z,0.83
2019-01-29T02:51:37.260Z,0.91
2019-01-29T02:54:05.096Z,0.98
2019-01-29T02:56:32.847Z,0.82
2019-01-29T02:59:00.626Z,0.72
2019-01-29T03:01:28.449Z,0.72
2019-01-29T03:03:56.588Z,0.76
2019-01-29T03:06:24.342Z,0.81
2019-01-29T03:08:52.096Z,0.86
2019-01-29T03:11:19.860Z,0.87
2019-01-29T03:13:47.616Z,0.96
2019-01-29T03:16:15.393Z,0.93
2019-01-29T03:18:43.215Z,0.97
2019-01-29T03:21:11.024Z,1.01
2019-01-29T03:23:38.779Z,1.00
2019-01-29T03:26:06.541Z,1.32
2019-01-29T03:28:34.315Z,1.23
2019-01-29T03:31:02.103Z,1.10
2019-01-29T03:33:29.919Z,0.88
2019-01-29T03:35:58.032Z,0.76
2019-01-29T03:38:25.796Z,0.72
2019-01-29T03:40:53.649Z,0.75
2019-01-29T03:43:21.503Z,0.88
2019-01-29T03:45:49.255Z,0.94
2019-01-29T03:48:17.023Z,1.04
2019-01-29T03:50:44.805Z,1.12
2019-01-29T03:53:12.584Z,1.05
2019-01-29T03:55:40.334Z,0.91
2019-01-29T03:58:08.411Z,0.85
2019-01-29T04:00:36.183Z,0.77
2019-01-29T04:03:04.349Z,0.74
2019-01-29T04:05:32.460Z,0.73
2019-01-29T04:08:00.240Z,0.86
2019-01-29T04:10:27.990Z,0.92
2019-01-29T04:12:55.769Z,0.74
2019-01-29T04:15:23.669Z,0.58
2019-01-29T04:17:55.481Z,0.45
2019-01-29T04:20:24.879Z,0.32
2019-01-29T04:22:52.628Z,0.33
2019-01-29T04:25:20.390Z,0.27
2019-01-29T04:27:48.233Z,0.24
2019-01-29T04:30:17.235Z,0.15
2019-01-29T04:32:44.972Z,0.09
2019-01-29T04:35:12.791Z,0.11
2019-01-29T04:37:40.551Z,0.00
2019-01-29T04:40:09.309Z,-0.14
2019-01-29T04:42:37.513Z,-0.29
2019-01-29T04:45:06.479Z,-0.43
2019-01-29T04:47:34.249Z,-0.47
2019-01-29T04:50:02.302Z,-0.57
2019-01-29T04:52:30.484Z,-0.61
2019-01-29T04:54:58.370Z,-0.69
2019-01-29T04:57:26.143Z,-0.79
2019-01-29T04:59:53.901Z,-0.73
2019-01-29T05:02:21.669Z,-0.65
2019-01-29T05:04:49.456Z,-0.39
2019-01-29T05:07:17.232Z,-0.22
2019-01-29T05:09:44.985Z,-0.16
2019-01-29T05:12:12.799Z,-0.17
2019-01-29T05:14:40.563Z,-0.17
2019-01-29T05:17:08.334Z,-0.18
2019-01-29T05:19:36.120Z,-0.11
2019-01-29T05:22:04.045Z,-0.11
2019-01-29T05:24:31.879Z,-0.15
2019-01-29T05:26:59.657Z,-0.17
2019-01-29T05:29:27.417Z,-0.14
2019-01-29T05:31:55.507Z,-0.18
2019-01-29T05:34:23.275Z,-0.24
2019-01-29T05:36:51.041Z,-0.26
2019-01-29T05:39:18.824Z,-0.28
2019-01-29T05:41:46.606Z,-0.29
2019-01-29T05:44:14.657Z,-0.31
2019-01-29T05:46:42.501Z,-0.28
2019-01-29T05:49:10.274Z,-0.25
2019-01-29T05:51:38.058Z,-0.33
2019-01-29T05:54:05.892Z,-0.40
2019-01-29T05:56:35.933Z,-0.57
2019-01-29T05:59:03.794Z,-0.68
2019-01-29T06:01:31.571Z,-0.79
2019-01-29T06:03:59.352Z,-0.90
2019-01-29T06:06:27.236Z,-0.90
2019-01-29T06:08:55.074Z,-0.90
2019-01-29T06:11:22.837Z,-1.00
2019-01-29T06:13:51.089Z,-1.00
2019-01-29T06:16:18.879Z,-1.01
2019-01-29T06:18:47.359Z,-1.16
2019-01-29T06:21:15.447Z,-1.24
2019-01-29T06:23:43.376Z,-1.32
2019-01-29T06:26:11.156Z,-1.34
2019-01-29T06:28:38.925Z,-1.42
2019-01-29T06:31:06.692Z,-1.34
2019-01-29T06:33:34.464Z,-1.31
2019-01-29T06:36:02.691Z,-1.37
2019-01-29T06:38:30.452Z,-1.13
2019-01-29T06:40:58.222Z,-0.92
2019-01-29T06:43:25.985Z,-0.73
2019-01-29T06:45:53.761Z,-0.68
2019-01-29T06:48:21.532Z,-0.61
2019-01-29T06:50:49.296Z,-0.43
2019-01-29T06:53:17.074Z,-0.29
2019-01-29T06:55:44.908Z,-0.20
2019-01-29T06:58:12.994Z,-0.22
2019-01-29T07:00:40.764Z,-0.19
2019-01-29T07:03:08.514Z,-0.03
2019-01-29T07:05:36.311Z,-0.09
2019-01-29T07:08:04.137Z,-0.01
2019-01-29T07:10:32.017Z,0.21
2019-01-29T07:12:59.778Z,0.14
2019-01-29T07:15:52.964Z,0.15
2019-01-29T07:18:42.815Z,0.08
2019-01-29T07:21:11.136Z,-0.01
2019-01-29T07:23:38.890Z,-0.02
2019-01-29T07:26:06.664Z,0.10
2019-01-29T07:28:34.422Z,0.10
2019-01-29T07:31:02.173Z,0.17
2019-01-29T07:33:29.933Z,0.23
2019-01-29T07:35:57.701Z,0.26
2019-01-29T07:38:25.469Z,0.38
2019-01-29T07:40:53.511Z,0.41
2019-01-29T07:43:21.269Z,0.43
2019-01-29T07:45:49.036Z,0.26
2019-01-29T07:48:16.978Z,0.07
2019-01-29T07:50:44.738Z,-0.09
2019-01-29T07:53:12.513Z,-0.19
2019-01-29T07:55:40.260Z,-0.30
2019-01-29T07:58:08.031Z,-0.39
2019-01-29T08:00:35.805Z,-0.38
2019-01-29T08:03:03.645Z,-0.33
2019-01-29T08:05:31.408Z,-0.36
2019-01-29T08:07:59.169Z,-0.33
2019-01-29T08:10:26.932Z,-0.29
2019-01-29T08:12:56.572Z,-0.21
2019-01-29T08:15:24.569Z,-0.21
2019-01-29T08:17:52.329Z,-0.01
2019-01-29T08:20:20.110Z,0.16
2019-01-29T08:22:47.928Z,0.07
2019-01-29T08:25:15.951Z,0.10
2019-01-29T08:27:44.009Z,0.10
2019-01-29T08:30:11.793Z,0.27
2019-01-29T08:32:39.620Z,0.48
2019-01-29T08:35:07.619Z,0.63
2019-01-29T08:37:35.381Z,0.61
2019-01-29T08:40:03.263Z,0.64
2019-01-29T08:42:31.101Z,0.60
2019-01-29T08:44:58.855Z,0.64
2019-01-29T08:47:26.610Z,0.82
2019-01-29T08:49:54.683Z,0.80
2019-01-29T08:52:22.853Z,0.87
2019-01-29T08:54:50.625Z,0.79
2019-01-29T08:57:18.452Z,0.58
2019-01-29T08:59:46.211Z,0.55
2019-01-29T09:02:14.157Z,0.62
2019-01-29T09:04:41.907Z,0.77
2019-01-29T09:07:09.727Z,1.03
2019-01-29T09:09:37.967Z,1.00
2019-01-29T09:12:05.805Z,0.86
2019-01-29T09:14:33.557Z,0.89
2019-01-29T09:17:01.335Z,0.79
2019-01-29T09:19:29.172Z,0.85
2019-01-29T09:21:56.935Z,0.86
2019-01-29T09:24:24.710Z,0.88
2019-01-29T09:26:52.465Z,0.90
2019-01-29T09:29:20.208Z,0.96
2019-01-29T09:31:47.977Z,0.90
2019-01-29T09:34:16.062Z,1.09
2019-01-29T09:36:43.879Z,1.04
2019-01-29T09:39:11.732Z,1.12
2019-01-29T09:41:39.486Z,1.22
2019-01-29T09:44:07.240Z,1.21
2019-01-29T09:46:35.008Z,1.20
2019-01-29T09:49:02.860Z,1.32
2019-01-29T09:51:30.712Z,1.55
2019-01-29T09:53:58.484Z,1.45
2019-01-29T09:56:27.887Z,1.49
2019-01-29T09:58:55.628Z,1.43
2019-01-29T10:01:23.396Z,1.39
2019-01-29T10:03:51.156Z,1.27
2019-01-29T10:06:18.906Z,1.67
2019-01-29T10:08:46.661Z,1.39
2019-01-29T10:11:14.409Z,1.16
2019-01-29T10:13:42.238Z,1.12
2019-01-29T10:16:10.006Z,1.20
2019-01-29T10:18:37.756Z,1.40
2019-01-29T10:21:05.829Z,1.34
2019-01-29T10:23:33.598Z,1.54
2019-01-29T10:26:01.360Z,1.76
2019-01-29T10:28:29.113Z,1.89
2019-01-29T10:30:56.868Z,2.01
2019-01-29T10:33:24.625Z,2.13
2019-01-29T10:35:52.383Z,2.14
2019-01-29T10:38:20.136Z,2.26
2019-01-29T10:40:47.972Z,2.42
2019-01-29T10:43:15.727Z,2.55
2019-01-29T10:45:43.555Z,2.69
2019-01-29T10:48:11.324Z,2.47
2019-01-29T10:50:39.088Z,2.59
2019-01-29T10:53:06.846Z,2.94
2019-01-29T10:55:34.936Z,2.98
2019-01-29T10:58:02.705Z,2.93
2019-01-29T11:00:31.884Z,3.06
2019-01-29T11:02:59.699Z,2.88
2019-01-29T11:05:27.544Z,3.08
2019-01-29T11:07:55.361Z,3.05
2019-01-29T11:10:23.205Z,2.96
2019-01-29T11:12:50.990Z,3.02
2019-01-29T11:15:21.068Z,2.64
2019-01-29T11:17:48.905Z,2.77
2019-01-29T11:20:16.761Z,3.01
2019-01-29T11:22:45.789Z,3.05
2019-01-29T11:25:15.555Z,3.17
2019-01-29T11:27:43.500Z,3.32
2019-01-29T11:30:11.935Z,3.55
2019-01-29T11:32:39.693Z,3.86
2019-01-29T11:35:07.947Z,3.90
2019-01-29T11:37:35.726Z,4.14
2019-01-29T11:40:03.563Z,3.92
2019-01-29T11:42:31.317Z,3.48
2019-01-29T11:44:59.076Z,3.46
2019-01-29T11:47:26.880Z,3.32
2019-01-29T11:49:54.636Z,3.21
2019-01-29T11:52:22.418Z,3.23
2019-01-29T11:54:50.429Z,3.07
2019-01-29T11:57:18.392Z,2.90
2019-01-29T11:59:46.472Z,3.20
2019-01-29T12:02:14.304Z,3.43
2019-01-29T12:04:42.068Z,3.36
2019-01-29T12:07:09.828Z,3.40
2019-01-29T12:09:37.664Z,3.42
2019-01-29T12:12:05.417Z,3.41
2019-01-29T12:14:33.182Z,3.49
2019-01-29T12:17:01.023Z,3.37
2019-01-29T12:19:28.780Z,3.22
2019-01-29T12:21:56.548Z,3.69
2019-01-29T12:24:24.300Z,3.45
2019-01-29T12:26:52.067Z,3.21
2019-01-29T12:29:19.820Z,3.12
2019-01-29T12:31:47.581Z,2.88
2019-01-29T12:34:15.396Z,2.75
2019-01-29T12:36:43.166Z,2.73
2019-01-29T12:39:11.006Z,2.81
2019-01-29T12:41:38.768Z,2.80
2019-01-29T12:44:06.588Z,2.81
2019-01-29T12:46:34.347Z,2.88
2019-01-29T12:49:02.184Z,2.84
2019-01-29T12:51:47.005Z,2.80
2019-01-29T12:54:14.849Z,2.88
2019-01-29T12:56:42.642Z,2.73
2019-01-29T12:59:10.404Z,2.64
2019-01-29T13:01:38.242Z,2.86
2019-01-29T13:04:06.000Z,2.77
2019-01-29T13:06:33.760Z,2.67
2019-01-29T13:09:01.597Z,2.54
2019-01-29T13:11:29.709Z,2.56
2019-01-29T13:13:57.740Z,2.66
2019-01-29T13:16:25.521Z,2.51
2019-01-29T13:18:53.271Z,2.47
2019-01-29T13:21:21.491Z,2.43
2019-01-29T13:23:49.243Z,2.39
2019-01-29T13:26:17.182Z,2.43
2019-01-29T13:28:45.254Z,2.42
2019-01-29T13:31:13.424Z,2.31
2019-01-29T13:33:41.188Z,2.08
2019-01-29T13:36:09.126Z,1.95
2019-01-29T13:38:36.897Z,1.89
2019-01-29T13:41:04.743Z,1.72
2019-01-29T13:43:32.504Z,2.00
2019-01-29T13:46:00.354Z,1.96
2019-01-29T13:48:28.171Z,1.97
2019-01-29T13:50:56.674Z,2.04
2019-01-29T13:53:24.426Z,2.01
2019-01-29T13:55:52.178Z,2.05
2019-01-29T13:58:20.025Z,2.15
2019-01-29T14:00:47.867Z,2.16
2019-01-29T14:03:16.101Z,1.96
2019-01-29T14:05:43.871Z,2.00
2019-01-29T14:08:11.616Z,1.87
2019-01-29T14:10:39.396Z,1.82
2019-01-29T14:13:07.266Z,1.69
2019-01-29T14:15:39.224Z,1.74
2019-01-29T14:18:06.987Z,1.74
2019-01-29T14:20:34.831Z,1.81
2019-01-29T14:23:02.698Z,1.64
2019-01-29T14:25:30.467Z,1.71
2019-01-29T14:27:58.304Z,1.85
2019-01-29T14:30:26.101Z,1.63
2019-01-29T14:32:54.036Z,1.78
2019-01-29T14:35:22.155Z,1.65
2019-01-29T14:38:18.609Z,1.60
2019-01-29T14:40:46.395Z,1.63
2019-01-29T14:43:14.748Z,1.74
2019-01-29T14:45:42.500Z,1.64
2019-01-29T14:48:10.327Z,1.64
2019-01-29T14:50:38.108Z,1.46
2019-01-29T14:53:05.949Z,1.51
2019-01-29T14:55:33.697Z,1.55
2019-01-29T14:58:01.486Z,1.86
2019-01-29T15:00:29.300Z,2.01
2019-01-29T15:02:57.130Z,1.87
2019-01-29T15:05:24.983Z,1.88
2019-01-29T15:07:52.911Z,2.10
2019-01-29T15:10:20.820Z,2.25
2019-01-29T15:12:50.581Z,2.12
2019-01-29T15:15:18.597Z,1.93
2019-01-29T15:17:50.230Z,1.87
2019-01-29T15:20:18.083Z,1.60
2019-01-29T15:22:45.921Z,1.48
2019-01-29T15:25:13.701Z,1.41
2019-01-29T15:27:41.497Z,1.23
2019-01-29T15:30:13.052Z,1.19
2019-01-29T15:32:40.868Z,1.03
2019-01-29T15:35:09.057Z,0.98
2019-01-29T15:37:36.830Z,1.05
2019-01-29T15:40:05.685Z,1.19
2019-01-29T15:42:33.559Z,1.17
2019-01-29T15:45:01.405Z,1.11
2019-01-29T15:47:29.467Z,1.08
2019-01-29T15:49:57.272Z,1.00
2019-01-29T15:52:25.028Z,0.87
2019-01-29T15:54:53.120Z,0.74
2019-01-29T15:57:20.951Z,0.68
2019-01-29T15:59:48.721Z,0.65
2019-01-29T16:02:16.781Z,0.49
2019-01-29T16:04:44.556Z,0.40
2019-01-29T16:07:12.317Z,0.32
2019-01-29T16:09:40.085Z,0.25
2019-01-29T16:12:07.833Z,0.26
2019-01-29T16:14:36.148Z,0.30
2019-01-29T16:17:03.989Z,0.37
2019-01-29T16:19:31.742Z,0.41
2019-01-29T16:21:59.552Z,0.34
2019-01-29T16:24:27.313Z,0.32
2019-01-29T16:26:55.084Z,0.33
2019-01-29T16:29:24.545Z,0.34
2019-01-29T16:31:52.300Z,0.34
2019-01-29T16:34:20.044Z,0.37
2019-01-29T16:36:48.582Z,0.41
2019-01-29T16:39:16.333Z,0.36
2019-01-29T16:41:44.084Z,0.28
2019-01-29T16:44:11.835Z,0.26
2019-01-29T16:46:39.596Z,0.24
2019-01-29T16:49:07.367Z,0.26
2019-01-29T16:51:41.991Z,0.17
2019-01-29T16:54:04.767Z,0.08
2019-01-29T16:56:32.695Z,0.10
2019-01-29T16:59:01.377Z,0.10
2019-01-29T17:01:29.315Z,0.10
2019-01-29T17:03:57.427Z,0.10
2019-01-29T17:06:25.177Z,0.07
2019-01-29T17:08:52.965Z,-0.03
2019-01-29T17:11:20.848Z,-0.11
2019-01-29T17:13:49.061Z,-0.15
2019-01-29T17:16:16.920Z,-0.17
2019-01-29T17:18:44.717Z,-0.10
2019-01-29T17:21:12.601Z,-0.14
2019-01-29T17:23:41.017Z,-0.18
2019-01-29T17:26:08.776Z,-0.16
2019-01-29T17:28:36.537Z,-0.25
2019-01-29T17:31:04.328Z,-0.20
2019-01-29T17:33:32.257Z,-0.20
2019-01-29T17:36:00.111Z,-0.20
2019-01-29T17:38:27.916Z,-0.25
2019-01-29T17:40:55.706Z,-0.25
2019-01-29T17:43:23.478Z,-0.32
2019-01-29T17:45:51.268Z,-0.33
2019-01-29T17:48:19.118Z,-0.37
2019-01-29T17:50:46.949Z,-0.41
2019-01-29T17:53:15.723Z,-0.40
2019-01-29T17:55:43.761Z,-0.43
2019-01-29T17:58:12.229Z,-0.42
2019-01-29T18:00:41.762Z,-0.43
2019-01-29T18:03:09.909Z,-0.36
2019-01-29T18:05:37.915Z,-0.40
2019-01-29T18:08:05.762Z,-0.39
2019-01-29T18:10:33.908Z,-0.40
2019-01-29T18:13:01.680Z,-0.43
2019-01-29T18:15:29.509Z,-0.47
2019-01-29T18:17:57.866Z,-0.51
2019-01-29T18:20:26.194Z,-0.55
2019-01-29T18:22:53.965Z,-0.51
2019-01-29T18:25:21.894Z,-0.56
2019-01-29T18:27:49.651Z,-0.66
2019-01-29T18:30:18.816Z,-0.67
2019-01-29T18:32:46.657Z,-0.60
2019-01-29T18:35:14.479Z,-0.64
2019-01-29T18:37:42.288Z,-0.65
2019-01-29T18:40:11.392Z,-0.56
2019-01-29T18:42:39.269Z,-0.62
2019-01-29T18:45:07.129Z,-0.71
2019-01-29T18:47:34.976Z,-0.77
2019-01-29T18:50:02.913Z,-0.77
2019-01-29T18:52:30.677Z,-0.75
2019-01-29T18:54:59.934Z,-0.80
2019-01-29T18:57:28.625Z,-0.84
2019-01-29T18:59:57.972Z,-0.85
2019-01-29T19:02:26.013Z,-0.84
2019-01-29T19:04:53.755Z,-0.81
2019-01-29T19:07:21.553Z,-0.85
2019-01-29T19:09:49.474Z,-0.82
2019-01-29T19:12:17.243Z,-0.84
2019-01-29T19:14:45.101Z,-0.82
2019-01-29T19:17:12.854Z,-0.84
2019-01-29T19:19:40.921Z,-0.75
2019-01-29T19:22:08.687Z,-0.80
2019-01-29T19:24:36.461Z,-0.88
2019-01-29T19:27:04.337Z,-0.91
2019-01-29T19:29:32.097Z,-0.93
2019-01-29T19:31:59.987Z,-0.93
2019-01-29T19:34:27.834Z,-0.87
2019-01-29T19:36:55.584Z,-0.86
2019-01-29T19:39:23.343Z,-0.78
2019-01-29T19:41:51.512Z,-0.68
2019-01-29T19:44:19.584Z,-0.60
2019-01-29T19:46:47.365Z,-0.58
2019-01-29T19:49:15.213Z,-0.63
2019-01-29T19:51:42.988Z,-0.75
2019-01-29T19:54:10.747Z,-0.87
2019-01-29T19:56:38.527Z,-1.04
2019-01-29T19:59:07.525Z,-1.05
2019-01-29T20:01:35.411Z,-0.95
2019-01-29T20:04:03.264Z,-0.98
2019-01-29T20:06:31.422Z,-0.89
2019-01-29T20:08:59.208Z,-0.93
2019-01-29T20:11:26.968Z,-1.13
2019-01-29T20:13:54.725Z,-1.11
2019-01-29T20:16:22.569Z,-1.05
2019-01-29T20:18:50.334Z,-0.90
2019-01-29T20:21:18.212Z,-0.84
2019-01-29T20:23:45.975Z,-0.90
2019-01-29T20:26:13.734Z,-0.91
2019-01-29T20:28:42.771Z,-0.95
2019-01-29T20:31:10.741Z,-0.97
2019-01-29T20:33:38.679Z,-0.96
2019-01-29T20:36:06.522Z,-0.92
2019-01-29T20:38:35.443Z,-0.92
2019-01-29T20:41:03.336Z,-0.87
2019-01-29T20:43:31.143Z,-0.87
2019-01-29T20:45:59.129Z,-0.79
2019-01-29T20:48:26.896Z,-0.79
2019-01-29T20:50:54.728Z,-0.76
2019-01-29T20:53:23.750Z,-0.76
2019-01-29T20:55:51.629Z,-0.80
2019-01-29T20:58:19.464Z,-0.75
2019-01-29T21:00:47.224Z,-0.79
2019-01-29T21:03:14.986Z,-0.75
2019-01-29T21:05:42.749Z,-0.66
2019-01-29T21:08:10.582Z,-0.60
2019-01-29T21:10:39.125Z,-0.61
2019-01-29T21:13:06.961Z,-0.57
2019-01-29T21:15:38.445Z,-0.58
2019-01-29T21:18:04.297Z,-0.52
2019-01-29T21:20:32.076Z,-0.52
2019-01-29T21:22:59.928Z,-0.29
2019-01-29T21:25:28.094Z,-0.43
2019-01-29T21:27:55.919Z,-0.46
2019-01-29T21:30:35.491Z,-0.47
2019-01-29T21:33:03.331Z,-0.43
2019-01-29T21:35:33.811Z,-0.49
2019-01-29T21:38:01.616Z,-0.46
2019-01-29T21:40:29.428Z,-0.47
2019-01-29T21:42:57.308Z,-0.43
2019-01-29T21:45:25.073Z,-0.38
2019-01-29T21:47:53.278Z,-0.46
2019-01-29T21:50:22.159Z,-0.45
2019-01-29T21:52:51.148Z,-0.48
2019-01-29T21:55:19.913Z,-0.46
2019-01-29T21:57:50.188Z,-0.51
2019-01-29T22:00:20.515Z,-0.51
2019-01-29T22:02:49.859Z,-0.44
2019-01-29T22:05:20.264Z,-0.48
2019-01-29T22:07:48.016Z,-0.48
2019-01-29T22:10:15.947Z,-0.51
2019-01-29T22:12:43.861Z,-0.50
2019-01-29T22:15:12.298Z,-0.51
2019-01-29T22:17:40.059Z,-0.53
2019-01-29T22:20:08.973Z,-0.57
2019-01-29T22:22:36.724Z,-0.60
2019-01-29T22:25:05.104Z,-0.61
2019-01-29T22:27:32.857Z,-0.60
2019-01-29T22:30:00.631Z,-0.64
2019-01-29T22:32:28.387Z,-0.59
2019-01-29T22:34:56.136Z,-0.58
2019-01-29T22:37:23.922Z,-0.62
2019-01-29T22:39:51.692Z,-0.60
2019-01-29T22:42:19.537Z,-0.54
2019-01-29T22:44:47.305Z,-0.53
2019-01-29T22:47:15.065Z,-0.52
2019-01-29T22:49:43.956Z,-0.54
2019-01-29T22:52:11.720Z,-0.53
2019-01-29T22:54:39.578Z,-0.58
2019-01-29T22:57:07.659Z,-0.56
2019-01-29T22:59:35.509Z,-0.58
2019-01-29T23:02:03.692Z,-0.58
2019-01-29T23:04:33.073Z,-0.63
2019-01-29T23:07:14.806Z,-0.60
2019-01-29T23:09:42.571Z,-0.59
2019-01-29T23:12:10.415Z,-0.59
2019-01-29T23:14:38.284Z,-0.56
2019-01-29T23:17:06.364Z,-0.64
2019-01-29T23:19:34.141Z,-0.54
2019-01-29T23:22:01.973Z,-0.58
2019-01-29T23:24:29.723Z,-0.55
2019-01-29T23:26:57.515Z,-0.52
2019-01-29T23:29:25.358Z,-0.54
2019-01-29T23:31:53.124Z,-0.63
2019-01-29T23:34:20.892Z,-0.62
2019-01-29T23:36:48.644Z,-0.65
2019-01-29T23:39:16.435Z,-0.55
2019-01-29T23:41:44.283Z,-0.59
2019-01-29T23:44:12.508Z,-0.59
2019-01-29T23:46:40.336Z,-0.52
2019-01-29T23:49:08.421Z,-0.51
2019-01-29T23:51:36.199Z,-0.58
2019-01-29T23:54:04.237Z,-0.57
2019-01-29T23:56:32.005Z,-0.58
2019-01-29T23:58:59.780Z,-0.50
